Lyster, Canada
Current Conditions -  °F | °C
As of 3:37 AM on Tuesday 27 Jan 2015 (Local Time) from CYQB Reporting Station
Blowing Snow Blowing Snow  
Wind Chill: -26°   Ceiling: 2000
Heat Index: -15°   Visibility: 8mi
Dew Point: -19°   Wind: 18mph
Humidity: 72%   Direction: 60°ENE
Pressure: 30.21"   Gusts: 28mph
Location:  46.37°N, 71.62°W
Report Text: CYQB 270837Z 06016G24KT 8SM -SHSN DRSN BKN020 OVC200 M15/M19 A3021 RMK SC5CI3 SLP237
Loading
Personal Weather Stations






























Interactive Weather Map New forecast layout! Learn more

10-Day Weather Forecast

Advertisements
Track Severe Weather on mobile